sensor_id;sensor_type;location;lat;lon;timestamp;P1;durP1;ratioP1;P2;durP2;ratioP2
72132;SDS011;60008;50.826;6.896;2022-11-20T00:01:38;17.50;;;7.28;;
72132;SDS011;60008;50.826;6.896;2022-11-20T00:04:24;16.83;;;7.35;;
72132;SDS011;60008;50.826;6.896;2022-11-20T00:07:08;16.37;;;7.17;;
72132;SDS011;60008;50.826;6.896;2022-11-20T00:09:53;18.00;;;7.70;;
72132;SDS011;60008;50.826;6.896;2022-11-20T00:12:38;19.00;;;7.40;;
72132;SDS011;60008;50.826;6.896;2022-11-20T00:15:24;17.27;;;7.53;;
72132;SDS011;60008;50.826;6.896;2022-11-20T00:18:09;15.88;;;7.22;;
72132;SDS011;60008;50.826;6.896;2022-11-20T00:21:00;17.17;;;7.60;;
72132;SDS011;60008;50.826;6.896;2022-11-20T00:23:46;21.23;;;7.47;;
72132;SDS011;60008;50.826;6.896;2022-11-20T00:26:31;16.70;;;6.65;;
72132;SDS011;60008;50.826;6.896;2022-11-20T00:29:17;16.02;;;6.75;;
72132;SDS011;60008;50.826;6.896;2022-11-20T00:32:02;15.98;;;6.55;;
72132;SDS011;60008;50.826;6.896;2022-11-20T00:34:47;17.63;;;7.03;;
72132;SDS011;60008;50.826;6.896;2022-11-20T00:37:32;15.38;;;6.55;;
72132;SDS011;60008;50.826;6.896;2022-11-20T00:40:17;19.15;;;7.45;;
72132;SDS011;60008;50.826;6.896;2022-11-20T00:43:02;17.27;;;7.28;;
72132;SDS011;60008;50.826;6.896;2022-11-20T00:45:48;19.02;;;7.70;;
72132;SDS011;60008;50.826;6.896;2022-11-20T00:48:33;17.97;;;7.13;;
72132;SDS011;60008;50.826;6.896;2022-11-20T00:51:18;15.27;;;6.70;;
72132;SDS011;60008;50.826;6.896;2022-11-20T00:54:05;19.17;;;7.65;;
72132;SDS011;60008;50.826;6.896;2022-11-20T00:56:52;19.20;;;8.07;;
72132;SDS011;60008;50.826;6.896;2022-11-20T00:59:38;16.63;;;7.05;;
72132;SDS011;60008;50.826;6.896;2022-11-20T01:02:23;15.93;;;6.80;;
72132;SDS011;60008;50.826;6.896;2022-11-20T01:05:07;18.83;;;7.63;;
72132;SDS011;60008;50.826;6.896;2022-11-20T01:07:52;18.90;;;7.95;;
72132;SDS011;60008;50.826;6.896;2022-11-20T01:10:38;19.75;;;8.27;;
72132;SDS011;60008;50.826;6.896;2022-11-20T01:13:23;17.63;;;7.35;;
72132;SDS011;60008;50.826;6.896;2022-11-20T01:16:24;17.83;;;7.20;;
72132;SDS011;60008;50.826;6.896;2022-11-20T01:19:11;17.65;;;7.63;;
72132;SDS011;60008;50.826;6.896;2022-11-20T01:22:01;18.08;;;7.82;;
72132;SDS011;60008;50.826;6.896;2022-11-20T01:24:46;17.75;;;7.57;;
72132;SDS011;60008;50.826;6.896;2022-11-20T01:27:32;18.75;;;8.02;;
72132;SDS011;60008;50.826;6.896;2022-11-20T01:30:17;19.17;;;8.10;;
72132;SDS011;60008;50.826;6.896;2022-11-20T01:33:02;16.85;;;7.20;;
72132;SDS011;60008;50.826;6.896;2022-11-20T01:35:47;17.70;;;7.55;;
72132;SDS011;60008;50.826;6.896;2022-11-20T01:38:32;15.32;;;6.63;;
72132;SDS011;60008;50.826;6.896;2022-11-20T01:41:17;17.02;;;7.78;;
72132;SDS011;60008;50.826;6.896;2022-11-20T01:47:39;15.70;;;7.22;;
72132;SDS011;60008;50.826;6.896;2022-11-20T01:50:28;17.48;;;7.55;;
72132;SDS011;60008;50.826;6.896;2022-11-20T01:53:14;15.70;;;6.32;;
72132;SDS011;60008;50.826;6.896;2022-11-20T01:56:04;12.60;;;5.90;;
72132;SDS011;60008;50.826;6.896;2022-11-20T01:58:53;15.03;;;6.60;;
72132;SDS011;60008;50.826;6.896;2022-11-20T02:01:41;17.35;;;6.63;;
72132;SDS011;60008;50.826;6.896;2022-11-20T02:04:26;14.00;;;6.15;;
72132;SDS011;60008;50.826;6.896;2022-11-20T02:07:11;14.13;;;6.63;;
72132;SDS011;60008;50.826;6.896;2022-11-20T02:09:56;16.08;;;6.63;;
72132;SDS011;60008;50.826;6.896;2022-11-20T02:12:42;17.27;;;7.40;;
72132;SDS011;60008;50.826;6.896;2022-11-20T02:15:46;20.63;;;7.35;;
72132;SDS011;60008;50.826;6.896;2022-11-20T02:18:32;15.73;;;7.22;;
72132;SDS011;60008;50.826;6.896;2022-11-20T02:27:07;17.00;;;7.23;;
72132;SDS011;60008;50.826;6.896;2022-11-20T02:29:59;19.27;;;7.57;;
72132;SDS011;60008;50.826;6.896;2022-11-20T02:32:46;16.73;;;7.20;;
72132;SDS011;60008;50.826;6.896;2022-11-20T02:38:16;16.23;;;7.35;;
72132;SDS011;60008;50.826;6.896;2022-11-20T02:41:02;17.93;;;7.33;;
72132;SDS011;60008;50.826;6.896;2022-11-20T02:43:47;17.42;;;7.30;;
72132;SDS011;60008;50.826;6.896;2022-11-20T02:46:32;15.73;;;7.00;;
72132;SDS011;60008;50.826;6.896;2022-11-20T02:49:18;15.85;;;7.15;;
72132;SDS011;60008;50.826;6.896;2022-11-20T02:52:03;14.10;;;6.93;;
72132;SDS011;60008;50.826;6.896;2022-11-20T02:54:49;19.63;;;7.70;;
72132;SDS011;60008;50.826;6.896;2022-11-20T02:57:34;17.98;;;7.13;;
72132;SDS011;60008;50.826;6.896;2022-11-20T03:00:19;16.13;;;7.40;;
72132;SDS011;60008;50.826;6.896;2022-11-20T03:03:04;15.50;;;6.72;;
72132;SDS011;60008;50.826;6.896;2022-11-20T03:05:49;17.52;;;7.63;;
72132;SDS011;60008;50.826;6.896;2022-11-20T03:08:34;15.57;;;6.77;;
72132;SDS011;60008;50.826;6.896;2022-11-20T03:11:20;17.60;;;7.15;;
72132;SDS011;60008;50.826;6.896;2022-11-20T03:14:05;15.30;;;6.93;;
72132;SDS011;60008;50.826;6.896;2022-11-20T03:16:50;15.63;;;6.93;;
72132;SDS011;60008;50.826;6.896;2022-11-20T03:19:35;17.75;;;7.10;;
72132;SDS011;60008;50.826;6.896;2022-11-20T03:22:20;16.20;;;6.63;;
72132;SDS011;60008;50.826;6.896;2022-11-20T03:25:05;19.92;;;7.38;;
72132;SDS011;60008;50.826;6.896;2022-11-20T03:27:50;15.80;;;5.97;;
72132;SDS011;60008;50.826;6.896;2022-11-20T03:30:36;15.65;;;6.78;;
72132;SDS011;60008;50.826;6.896;2022-11-20T03:33:21;18.67;;;7.40;;
72132;SDS011;60008;50.826;6.896;2022-11-20T03:36:07;16.30;;;7.30;;
72132;SDS011;60008;50.826;6.896;2022-11-20T03:38:54;16.30;;;6.40;;
72132;SDS011;60008;50.826;6.896;2022-11-20T03:41:40;18.48;;;7.70;;
72132;SDS011;60008;50.826;6.896;2022-11-20T03:44:26;16.90;;;6.97;;
72132;SDS011;60008;50.826;6.896;2022-11-20T03:47:11;17.73;;;7.43;;
72132;SDS011;60008;50.826;6.896;2022-11-20T03:49:56;18.37;;;7.17;;
72132;SDS011;60008;50.826;6.896;2022-11-20T03:52:41;17.27;;;7.38;;
72132;SDS011;60008;50.826;6.896;2022-11-20T03:55:26;17.00;;;6.75;;
72132;SDS011;60008;50.826;6.896;2022-11-20T03:58:11;21.17;;;7.88;;
72132;SDS011;60008;50.826;6.896;2022-11-20T04:00:58;17.15;;;7.70;;
72132;SDS011;60008;50.826;6.896;2022-11-20T04:03:49;18.40;;;7.40;;
72132;SDS011;60008;50.826;6.896;2022-11-20T04:06:37;15.77;;;6.80;;
72132;SDS011;60008;50.826;6.896;2022-11-20T04:09:22;16.83;;;6.82;;
72132;SDS011;60008;50.826;6.896;2022-11-20T04:12:07;18.83;;;7.28;;
72132;SDS011;60008;50.826;6.896;2022-11-20T04:14:53;18.75;;;7.65;;
72132;SDS011;60008;50.826;6.896;2022-11-20T04:17:38;15.93;;;6.80;;
72132;SDS011;60008;50.826;6.896;2022-11-20T04:20:23;18.27;;;7.88;;
72132;SDS011;60008;50.826;6.896;2022-11-20T04:23:08;19.40;;;8.00;;
72132;SDS011;60008;50.826;6.896;2022-11-20T04:25:53;19.13;;;7.68;;
72132;SDS011;60008;50.826;6.896;2022-11-20T04:28:38;20.75;;;7.72;;
72132;SDS011;60008;50.826;6.896;2022-11-20T04:31:25;18.23;;;8.07;;
72132;SDS011;60008;50.826;6.896;2022-11-20T04:34:11;23.30;;;7.88;;
72132;SDS011;60008;50.826;6.896;2022-11-20T04:36:57;17.20;;;7.00;;
72132;SDS011;60008;50.826;6.896;2022-11-20T04:39:43;18.33;;;8.00;;
72132;SDS011;60008;50.826;6.896;2022-11-20T04:42:28;19.77;;;7.68;;
72132;SDS011;60008;50.826;6.896;2022-11-20T04:45:13;18.87;;;7.57;;
72132;SDS011;60008;50.826;6.896;2022-11-20T04:47:58;16.35;;;7.13;;
72132;SDS011;60008;50.826;6.896;2022-11-20T04:50:43;19.25;;;7.53;;
72132;SDS011;60008;50.826;6.896;2022-11-20T04:53:28;19.73;;;7.43;;
72132;SDS011;60008;50.826;6.896;2022-11-20T04:56:13;17.38;;;7.82;;
72132;SDS011;60008;50.826;6.896;2022-11-20T04:59:01;14.40;;;6.20;;
72132;SDS011;60008;50.826;6.896;2022-11-20T05:01:46;15.82;;;6.95;;
72132;SDS011;60008;50.826;6.896;2022-11-20T05:04:31;17.75;;;7.82;;
72132;SDS011;60008;50.826;6.896;2022-11-20T05:07:16;18.40;;;7.32;;
72132;SDS011;60008;50.826;6.896;2022-11-20T05:10:01;18.13;;;7.15;;
72132;SDS011;60008;50.826;6.896;2022-11-20T05:12:46;19.93;;;8.87;;
72132;SDS011;60008;50.826;6.896;2022-11-20T05:15:32;19.70;;;7.90;;
72132;SDS011;60008;50.826;6.896;2022-11-20T05:18:16;19.55;;;8.18;;
72132;SDS011;60008;50.826;6.896;2022-11-20T05:21:02;17.20;;;7.13;;
72132;SDS011;60008;50.826;6.896;2022-11-20T05:23:48;18.13;;;8.05;;
72132;SDS011;60008;50.826;6.896;2022-11-20T05:26:33;17.87;;;7.40;;
72132;SDS011;60008;50.826;6.896;2022-11-20T05:29:18;20.58;;;8.30;;
72132;SDS011;60008;50.826;6.896;2022-11-20T05:32:03;17.52;;;7.50;;
72132;SDS011;60008;50.826;6.896;2022-11-20T05:34:50;20.75;;;8.43;;
72132;SDS011;60008;50.826;6.896;2022-11-20T05:37:35;20.55;;;8.20;;
72132;SDS011;60008;50.826;6.896;2022-11-20T05:40:21;20.27;;;7.90;;
72132;SDS011;60008;50.826;6.896;2022-11-20T05:43:05;24.10;;;8.40;;
72132;SDS011;60008;50.826;6.896;2022-11-20T05:45:53;19.70;;;8.40;;
72132;SDS011;60008;50.826;6.896;2022-11-20T05:48:39;20.27;;;7.85;;
72132;SDS011;60008;50.826;6.896;2022-11-20T05:51:26;17.13;;;7.20;;
72132;SDS011;60008;50.826;6.896;2022-11-20T05:54:12;18.00;;;7.63;;
72132;SDS011;60008;50.826;6.896;2022-11-20T05:56:57;21.17;;;8.57;;
72132;SDS011;60008;50.826;6.896;2022-11-20T05:59:42;17.00;;;7.30;;
72132;SDS011;60008;50.826;6.896;2022-11-20T06:02:27;18.85;;;7.78;;
72132;SDS011;60008;50.826;6.896;2022-11-20T06:05:12;19.65;;;8.48;;
72132;SDS011;60008;50.826;6.896;2022-11-20T06:07:57;23.03;;;9.00;;
72132;SDS011;60008;50.826;6.896;2022-11-20T06:10:43;19.30;;;8.40;;
72132;SDS011;60008;50.826;6.896;2022-11-20T06:13:28;20.10;;;8.32;;
72132;SDS011;60008;50.826;6.896;2022-11-20T06:16:13;18.65;;;7.95;;
72132;SDS011;60008;50.826;6.896;2022-11-20T06:19:00;19.95;;;8.30;;
72132;SDS011;60008;50.826;6.896;2022-11-20T06:21:47;23.03;;;8.70;;
72132;SDS011;60008;50.826;6.896;2022-11-20T06:24:32;21.35;;;8.35;;
72132;SDS011;60008;50.826;6.896;2022-11-20T06:27:17;21.38;;;8.55;;
72132;SDS011;60008;50.826;6.896;2022-11-20T06:30:03;21.90;;;9.35;;
72132;SDS011;60008;50.826;6.896;2022-11-20T06:32:48;19.95;;;8.35;;
72132;SDS011;60008;50.826;6.896;2022-11-20T06:35:33;18.90;;;7.90;;
72132;SDS011;60008;50.826;6.896;2022-11-20T06:38:18;20.65;;;9.00;;
72132;SDS011;60008;50.826;6.896;2022-11-20T06:41:07;22.55;;;8.48;;
72132;SDS011;60008;50.826;6.896;2022-11-20T06:43:54;20.63;;;9.30;;
72132;SDS011;60008;50.826;6.896;2022-11-20T06:46:40;24.42;;;8.73;;
72132;SDS011;60008;50.826;6.896;2022-11-20T06:49:25;18.33;;;8.13;;
72132;SDS011;60008;50.826;6.896;2022-11-20T06:52:10;20.33;;;8.20;;
72132;SDS011;60008;50.826;6.896;2022-11-20T06:54:55;21.65;;;8.60;;
72132;SDS011;60008;50.826;6.896;2022-11-20T06:57:40;20.35;;;8.05;;
72132;SDS011;60008;50.826;6.896;2022-11-20T07:00:25;23.23;;;9.10;;
72132;SDS011;60008;50.826;6.896;2022-11-20T07:03:11;20.93;;;8.93;;
72132;SDS011;60008;50.826;6.896;2022-11-20T07:05:57;24.88;;;8.80;;
72132;SDS011;60008;50.826;6.896;2022-11-20T07:08:44;21.95;;;9.32;;
72132;SDS011;60008;50.826;6.896;2022-11-20T07:11:29;19.08;;;8.70;;
72132;SDS011;60008;50.826;6.896;2022-11-20T07:14:14;22.05;;;9.18;;
72132;SDS011;60008;50.826;6.896;2022-11-20T07:16:59;21.23;;;8.33;;
72132;SDS011;60008;50.826;6.896;2022-11-20T07:19:44;21.15;;;9.25;;
72132;SDS011;60008;50.826;6.896;2022-11-20T07:22:29;22.38;;;8.85;;
72132;SDS011;60008;50.826;6.896;2022-11-20T07:25:14;23.38;;;9.23;;
72132;SDS011;60008;50.826;6.896;2022-11-20T07:27:59;19.38;;;9.00;;
72132;SDS011;60008;50.826;6.896;2022-11-20T07:30:51;21.57;;;9.33;;
72132;SDS011;60008;50.826;6.896;2022-11-20T07:33:37;23.30;;;9.05;;
72132;SDS011;60008;50.826;6.896;2022-11-20T07:36:22;23.05;;;9.75;;
72132;SDS011;60008;50.826;6.896;2022-11-20T07:39:07;20.15;;;8.80;;
72132;SDS011;60008;50.826;6.896;2022-11-20T07:41:52;21.33;;;9.00;;
72132;SDS011;60008;50.826;6.896;2022-11-20T07:44:38;25.90;;;10.57;;
72132;SDS011;60008;50.826;6.896;2022-11-20T07:47:23;23.00;;;9.82;;
72132;SDS011;60008;50.826;6.896;2022-11-20T07:50:07;19.27;;;8.60;;
72132;SDS011;60008;50.826;6.896;2022-11-20T07:52:59;25.02;;;10.65;;
72132;SDS011;60008;50.826;6.896;2022-11-20T07:55:45;21.95;;;9.07;;
72132;SDS011;60008;50.826;6.896;2022-11-20T07:58:30;23.33;;;10.20;;
72132;SDS011;60008;50.826;6.896;2022-11-20T08:01:17;22.23;;;8.90;;
72132;SDS011;60008;50.826;6.896;2022-11-20T08:04:03;26.75;;;10.15;;
72132;SDS011;60008;50.826;6.896;2022-11-20T08:06:48;23.85;;;9.98;;
72132;SDS011;60008;50.826;6.896;2022-11-20T08:09:33;20.73;;;8.88;;
72132;SDS011;60008;50.826;6.896;2022-11-20T08:12:19;22.80;;;9.37;;
72132;SDS011;60008;50.826;6.896;2022-11-20T08:15:23;23.83;;;9.98;;
72132;SDS011;60008;50.826;6.896;2022-11-20T08:18:11;21.70;;;9.52;;
72132;SDS011;60008;50.826;6.896;2022-11-20T08:21:16;27.02;;;10.43;;
72132;SDS011;60008;50.826;6.896;2022-11-20T08:24:01;20.38;;;8.82;;
72132;SDS011;60008;50.826;6.896;2022-11-20T08:26:46;20.57;;;8.47;;
72132;SDS011;60008;50.826;6.896;2022-11-20T08:29:31;21.75;;;8.75;;
72132;SDS011;60008;50.826;6.896;2022-11-20T08:32:16;23.52;;;9.10;;
72132;SDS011;60008;50.826;6.896;2022-11-20T08:35:01;20.92;;;9.77;;
72132;SDS011;60008;50.826;6.896;2022-11-20T08:37:47;23.55;;;9.32;;
72132;SDS011;60008;50.826;6.896;2022-11-20T08:40:32;21.07;;;8.60;;
72132;SDS011;60008;50.826;6.896;2022-11-20T08:43:18;24.35;;;9.77;;
72132;SDS011;60008;50.826;6.896;2022-11-20T08:46:03;23.30;;;9.90;;
72132;SDS011;60008;50.826;6.896;2022-11-20T08:48:48;21.52;;;9.32;;
72132;SDS011;60008;50.826;6.896;2022-11-20T08:51:34;24.73;;;9.57;;
72132;SDS011;60008;50.826;6.896;2022-11-20T08:54:19;23.57;;;9.93;;
72132;SDS011;60008;50.826;6.896;2022-11-20T08:57:06;27.35;;;10.30;;
72132;SDS011;60008;50.826;6.896;2022-11-20T08:59:51;22.50;;;10.05;;
72132;SDS011;60008;50.826;6.896;2022-11-20T09:02:50;24.27;;;8.90;;
72132;SDS011;60008;50.826;6.896;2022-11-20T09:05:36;28.60;;;9.75;;
72132;SDS011;60008;50.826;6.896;2022-11-20T09:08:21;24.17;;;9.70;;
72132;SDS011;60008;50.826;6.896;2022-11-20T09:11:06;24.20;;;9.82;;
72132;SDS011;60008;50.826;6.896;2022-11-20T09:13:52;23.42;;;9.80;;
72132;SDS011;60008;50.826;6.896;2022-11-20T09:16:37;21.85;;;8.27;;
72132;SDS011;60008;50.826;6.896;2022-11-20T09:19:26;23.92;;;8.40;;
72132;SDS011;60008;50.826;6.896;2022-11-20T09:22:24;19.47;;;8.87;;
72132;SDS011;60008;50.826;6.896;2022-11-20T09:25:09;21.75;;;8.85;;
72132;SDS011;60008;50.826;6.896;2022-11-20T09:27:58;24.33;;;9.98;;
72132;SDS011;60008;50.826;6.896;2022-11-20T09:30:44;18.08;;;7.40;;
72132;SDS011;60008;50.826;6.896;2022-11-20T09:33:29;17.58;;;7.93;;
72132;SDS011;60008;50.826;6.896;2022-11-20T09:36:14;24.03;;;9.27;;
72132;SDS011;60008;50.826;6.896;2022-11-20T09:39:00;21.20;;;8.55;;
72132;SDS011;60008;50.826;6.896;2022-11-20T09:41:52;22.90;;;9.95;;
72132;SDS011;60008;50.826;6.896;2022-11-20T09:44:54;21.75;;;9.05;;
72132;SDS011;60008;50.826;6.896;2022-11-20T09:47:48;15.48;;;6.60;;
72132;SDS011;60008;50.826;6.896;2022-11-20T09:53:55;23.20;;;8.75;;
72132;SDS011;60008;50.826;6.896;2022-11-20T09:56:55;21.48;;;8.77;;
72132;SDS011;60008;50.826;6.896;2022-11-20T09:59:45;22.63;;;9.60;;
72132;SDS011;60008;50.826;6.896;2022-11-20T10:02:36;22.02;;;9.43;;
72132;SDS011;60008;50.826;6.896;2022-11-20T10:05:27;28.73;;;11.10;;
72132;SDS011;60008;50.826;6.896;2022-11-20T10:08:21;20.50;;;9.60;;
72132;SDS011;60008;50.826;6.896;2022-11-20T10:11:21;24.60;;;10.18;;
72132;SDS011;60008;50.826;6.896;2022-11-20T10:26:44;20.20;;;7.38;;
72132;SDS011;60008;50.826;6.896;2022-11-20T10:29:45;21.83;;;8.18;;
72132;SDS011;60008;50.826;6.896;2022-11-20T10:32:50;20.70;;;9.00;;
72132;SDS011;60008;50.826;6.896;2022-11-20T10:35:40;22.13;;;9.10;;
72132;SDS011;60008;50.826;6.896;2022-11-20T10:38:31;18.15;;;7.78;;
72132;SDS011;60008;50.826;6.896;2022-11-20T10:41:26;22.85;;;9.23;;
72132;SDS011;60008;50.826;6.896;2022-11-20T10:44:21;20.30;;;8.43;;
72132;SDS011;60008;50.826;6.896;2022-11-20T10:47:30;19.70;;;7.45;;
72132;SDS011;60008;50.826;6.896;2022-11-20T10:50:18;21.97;;;8.07;;
72132;SDS011;60008;50.826;6.896;2022-11-20T10:56:24;16.80;;;7.20;;
72132;SDS011;60008;50.826;6.896;2022-11-20T10:59:28;21.20;;;8.30;;
72132;SDS011;60008;50.826;6.896;2022-11-20T11:02:49;20.60;;;8.70;;
72132;SDS011;60008;50.826;6.896;2022-11-20T11:05:37;25.67;;;10.90;;
72132;SDS011;60008;50.826;6.896;2022-11-20T11:08:28;17.45;;;7.65;;
72132;SDS011;60008;50.826;6.896;2022-11-20T11:11:24;19.17;;;7.13;;
72132;SDS011;60008;50.826;6.896;2022-11-20T11:14:13;24.50;;;8.77;;
72132;SDS011;60008;50.826;6.896;2022-11-20T11:17:00;24.55;;;10.32;;
72132;SDS011;60008;50.826;6.896;2022-11-20T11:19:45;16.90;;;6.80;;
72132;SDS011;60008;50.826;6.896;2022-11-20T11:22:31;15.88;;;6.13;;
72132;SDS011;60008;50.826;6.896;2022-11-20T11:25:22;18.75;;;7.85;;
72132;SDS011;60008;50.826;6.896;2022-11-20T11:31:03;17.45;;;6.40;;
72132;SDS011;60008;50.826;6.896;2022-11-20T11:33:48;18.67;;;9.20;;
72132;SDS011;60008;50.826;6.896;2022-11-20T11:36:34;18.55;;;7.78;;
72132;SDS011;60008;50.826;6.896;2022-11-20T11:39:20;20.15;;;9.02;;
72132;SDS011;60008;50.826;6.896;2022-11-20T11:42:07;14.38;;;6.10;;
72132;SDS011;60008;50.826;6.896;2022-11-20T11:44:58;16.88;;;8.05;;
72132;SDS011;60008;50.826;6.896;2022-11-20T11:47:51;21.57;;;9.80;;
72132;SDS011;60008;50.826;6.896;2022-11-20T11:50:38;20.15;;;9.05;;
72132;SDS011;60008;50.826;6.896;2022-11-20T11:53:37;22.08;;;8.35;;
72132;SDS011;60008;50.826;6.896;2022-11-20T11:56:25;22.20;;;8.20;;
72132;SDS011;60008;50.826;6.896;2022-11-20T11:59:15;18.70;;;7.32;;
72132;SDS011;60008;50.826;6.896;2022-11-20T12:02:15;20.10;;;7.43;;
72132;SDS011;60008;50.826;6.896;2022-11-20T12:11:21;20.23;;;7.70;;
72132;SDS011;60008;50.826;6.896;2022-11-20T12:14:15;18.88;;;7.82;;
72132;SDS011;60008;50.826;6.896;2022-11-20T12:17:09;17.60;;;7.40;;
72132;SDS011;60008;50.826;6.896;2022-11-20T12:19:57;18.52;;;6.88;;
72132;SDS011;60008;50.826;6.896;2022-11-20T12:22:48;19.90;;;8.00;;
72132;SDS011;60008;50.826;6.896;2022-11-20T12:25:44;15.70;;;6.97;;
72132;SDS011;60008;50.826;6.896;2022-11-20T12:28:35;19.80;;;7.55;;
72132;SDS011;60008;50.826;6.896;2022-11-20T12:31:42;19.70;;;7.73;;
72132;SDS011;60008;50.826;6.896;2022-11-20T12:35:13;16.42;;;6.95;;
72132;SDS011;60008;50.826;6.896;2022-11-20T12:38:16;16.05;;;7.07;;
72132;SDS011;60008;50.826;6.896;2022-11-20T12:54:12;23.92;;;7.97;;
72132;SDS011;60008;50.826;6.896;2022-11-20T13:00:33;14.10;;;5.45;;
72132;SDS011;60008;50.826;6.896;2022-11-20T13:03:33;15.90;;;6.87;;
72132;SDS011;60008;50.826;6.896;2022-11-20T13:06:24;17.60;;;7.65;;
72132;SDS011;60008;50.826;6.896;2022-11-20T13:09:11;16.23;;;6.90;;
72132;SDS011;60008;50.826;6.896;2022-11-20T13:12:03;15.82;;;5.05;;
72132;SDS011;60008;50.826;6.896;2022-11-20T13:14:58;15.88;;;6.53;;
72132;SDS011;60008;50.826;6.896;2022-11-20T13:17:54;15.70;;;6.00;;
72132;SDS011;60008;50.826;6.896;2022-11-20T13:20:44;17.65;;;7.65;;
72132;SDS011;60008;50.826;6.896;2022-11-20T13:23:29;17.83;;;7.35;;
72132;SDS011;60008;50.826;6.896;2022-11-20T13:26:15;18.77;;;7.53;;
72132;SDS011;60008;50.826;6.896;2022-11-20T13:29:08;19.58;;;8.25;;
72132;SDS011;60008;50.826;6.896;2022-11-20T13:35:05;10.80;;;4.80;;
72132;SDS011;60008;50.826;6.896;2022-11-20T13:37:59;18.38;;;7.70;;
72132;SDS011;60008;50.826;6.896;2022-11-20T13:40:50;18.50;;;7.28;;
72132;SDS011;60008;50.826;6.896;2022-11-20T13:43:40;18.20;;;6.30;;
72132;SDS011;60008;50.826;6.896;2022-11-20T13:46:36;19.80;;;7.77;;
72132;SDS011;60008;50.826;6.896;2022-11-20T13:58:59;17.17;;;7.22;;
72132;SDS011;60008;50.826;6.896;2022-11-20T14:01:58;18.43;;;7.63;;
72132;SDS011;60008;50.826;6.896;2022-11-20T14:04:45;18.85;;;7.55;;
72132;SDS011;60008;50.826;6.896;2022-11-20T14:07:37;18.55;;;7.50;;
72132;SDS011;60008;50.826;6.896;2022-11-20T14:10:27;17.20;;;7.22;;
72132;SDS011;60008;50.826;6.896;2022-11-20T14:13:19;16.80;;;6.93;;
72132;SDS011;60008;50.826;6.896;2022-11-20T14:16:05;17.83;;;6.80;;
72132;SDS011;60008;50.826;6.896;2022-11-20T14:18:50;18.17;;;7.32;;
72132;SDS011;60008;50.826;6.896;2022-11-20T14:21:36;15.48;;;6.75;;
72132;SDS011;60008;50.826;6.896;2022-11-20T14:24:22;17.27;;;6.88;;
72132;SDS011;60008;50.826;6.896;2022-11-20T14:27:15;18.30;;;7.05;;
72132;SDS011;60008;50.826;6.896;2022-11-20T14:30:02;15.57;;;7.23;;
72132;SDS011;60008;50.826;6.896;2022-11-20T14:32:48;18.65;;;7.78;;
72132;SDS011;60008;50.826;6.896;2022-11-20T14:35:35;17.67;;;7.78;;
72132;SDS011;60008;50.826;6.896;2022-11-20T14:38:25;21.90;;;7.82;;
72132;SDS011;60008;50.826;6.896;2022-11-20T14:41:19;18.58;;;7.30;;
72132;SDS011;60008;50.826;6.896;2022-11-20T14:44:06;16.77;;;7.10;;
72132;SDS011;60008;50.826;6.896;2022-11-20T14:46:54;19.52;;;8.25;;
72132;SDS011;60008;50.826;6.896;2022-11-20T14:49:39;18.42;;;7.60;;
72132;SDS011;60008;50.826;6.896;2022-11-20T14:52:26;18.70;;;7.57;;
72132;SDS011;60008;50.826;6.896;2022-11-20T14:55:13;20.17;;;8.52;;
72132;SDS011;60008;50.826;6.896;2022-11-20T14:57:59;21.00;;;8.30;;
72132;SDS011;60008;50.826;6.896;2022-11-20T15:00:56;21.98;;;8.68;;
72132;SDS011;60008;50.826;6.896;2022-11-20T15:03:42;19.45;;;7.35;;
72132;SDS011;60008;50.826;6.896;2022-11-20T15:06:28;17.00;;;8.35;;
72132;SDS011;60008;50.826;6.896;2022-11-20T15:09:14;19.00;;;7.43;;
72132;SDS011;60008;50.826;6.896;2022-11-20T15:12:00;23.93;;;10.13;;
72132;SDS011;60008;50.826;6.896;2022-11-20T15:14:47;22.10;;;8.70;;
72132;SDS011;60008;50.826;6.896;2022-11-20T15:17:40;17.58;;;7.32;;
72132;SDS011;60008;50.826;6.896;2022-11-20T15:20:26;18.75;;;7.93;;
72132;SDS011;60008;50.826;6.896;2022-11-20T15:23:15;19.05;;;8.18;;
72132;SDS011;60008;50.826;6.896;2022-11-20T15:26:05;20.03;;;8.30;;
72132;SDS011;60008;50.826;6.896;2022-11-20T15:28:51;20.33;;;8.23;;
72132;SDS011;60008;50.826;6.896;2022-11-20T15:31:37;21.38;;;9.52;;
72132;SDS011;60008;50.826;6.896;2022-11-20T15:34:26;27.83;;;12.80;;
72132;SDS011;60008;50.826;6.896;2022-11-20T15:37:12;25.88;;;11.95;;
72132;SDS011;60008;50.826;6.896;2022-11-20T15:39:57;20.43;;;9.30;;
72132;SDS011;60008;50.826;6.896;2022-11-20T15:42:42;32.55;;;13.05;;
72132;SDS011;60008;50.826;6.896;2022-11-20T15:45:55;45.28;;;17.45;;
72132;SDS011;60008;50.826;6.896;2022-11-20T15:48:44;22.35;;;10.38;;
72132;SDS011;60008;50.826;6.896;2022-11-20T15:51:34;25.30;;;11.82;;
72132;SDS011;60008;50.826;6.896;2022-11-20T15:54:21;27.73;;;13.43;;
72132;SDS011;60008;50.826;6.896;2022-11-20T15:57:07;25.50;;;13.25;;
72132;SDS011;60008;50.826;6.896;2022-11-20T15:59:52;27.08;;;10.88;;
72132;SDS011;60008;50.826;6.896;2022-11-20T16:02:37;27.02;;;13.80;;
72132;SDS011;60008;50.826;6.896;2022-11-20T16:05:22;27.30;;;14.35;;
72132;SDS011;60008;50.826;6.896;2022-11-20T16:08:10;25.07;;;11.77;;
72132;SDS011;60008;50.826;6.896;2022-11-20T16:10:56;15.60;;;6.25;;
72132;SDS011;60008;50.826;6.896;2022-11-20T16:13:41;11.30;;;5.50;;
72132;SDS011;60008;50.826;6.896;2022-11-20T16:16:45;17.63;;;8.40;;
72132;SDS011;60008;50.826;6.896;2022-11-20T16:19:30;23.08;;;10.60;;
72132;SDS011;60008;50.826;6.896;2022-11-20T16:22:15;10.67;;;4.57;;
72132;SDS011;60008;50.826;6.896;2022-11-20T16:25:00;8.05;;;3.10;;
72132;SDS011;60008;50.826;6.896;2022-11-20T16:27:45;9.65;;;3.92;;
72132;SDS011;60008;50.826;6.896;2022-11-20T16:30:31;6.85;;;3.25;;
72132;SDS011;60008;50.826;6.896;2022-11-20T16:33:17;5.93;;;2.85;;
72132;SDS011;60008;50.826;6.896;2022-11-20T16:36:12;11.10;;;5.20;;
72132;SDS011;60008;50.826;6.896;2022-11-20T16:38:59;9.25;;;4.10;;
72132;SDS011;60008;50.826;6.896;2022-11-20T16:41:45;10.77;;;4.25;;
72132;SDS011;60008;50.826;6.896;2022-11-20T16:44:30;7.68;;;3.72;;
72132;SDS011;60008;50.826;6.896;2022-11-20T16:47:15;14.55;;;6.45;;
72132;SDS011;60008;50.826;6.896;2022-11-20T16:50:01;10.10;;;4.00;;
72132;SDS011;60008;50.826;6.896;2022-11-20T16:52:46;4.90;;;2.70;;
72132;SDS011;60008;50.826;6.896;2022-11-20T16:55:31;10.98;;;4.50;;
72132;SDS011;60008;50.826;6.896;2022-11-20T16:58:16;10.13;;;4.00;;
72132;SDS011;60008;50.826;6.896;2022-11-20T17:01:05;8.07;;;3.53;;
72132;SDS011;60008;50.826;6.896;2022-11-20T17:03:58;4.47;;;2.03;;
72132;SDS011;60008;50.826;6.896;2022-11-20T17:06:44;9.38;;;4.53;;
72132;SDS011;60008;50.826;6.896;2022-11-20T17:09:30;13.43;;;6.32;;
72132;SDS011;60008;50.826;6.896;2022-11-20T17:12:15;18.38;;;9.80;;
72132;SDS011;60008;50.826;6.896;2022-11-20T17:15:00;18.25;;;8.60;;
72132;SDS011;60008;50.826;6.896;2022-11-20T17:17:44;12.43;;;6.43;;
72132;SDS011;60008;50.826;6.896;2022-11-20T17:20:30;12.82;;;5.93;;
72132;SDS011;60008;50.826;6.896;2022-11-20T17:23:16;12.65;;;6.15;;
72132;SDS011;60008;50.826;6.896;2022-11-20T17:26:02;21.40;;;9.68;;
72132;SDS011;60008;50.826;6.896;2022-11-20T17:28:53;19.95;;;8.98;;
72132;SDS011;60008;50.826;6.896;2022-11-20T17:31:48;15.17;;;5.53;;
72132;SDS011;60008;50.826;6.896;2022-11-20T17:34:34;16.85;;;8.18;;
72132;SDS011;60008;50.826;6.896;2022-11-20T17:37:19;15.75;;;8.02;;
72132;SDS011;60008;50.826;6.896;2022-11-20T17:40:04;19.58;;;7.95;;
72132;SDS011;60008;50.826;6.896;2022-11-20T17:42:50;11.48;;;4.57;;
72132;SDS011;60008;50.826;6.896;2022-11-20T17:45:35;15.30;;;6.20;;